createdAt,value
2019-05-07T00:01:18.918Z,7.37
2019-05-07T00:03:48.876Z,7.43
2019-05-07T00:06:18.869Z,5.07
2019-05-07T00:08:48.837Z,5.57
2019-05-07T00:11:18.841Z,5.83
2019-05-07T00:13:48.809Z,8.37
2019-05-07T00:16:18.806Z,3.73
2019-05-07T00:18:48.839Z,4.90
2019-05-07T00:21:18.838Z,7.00
2019-05-07T00:23:48.785Z,7.23
2019-05-07T00:26:18.757Z,6.87
2019-05-07T00:28:48.717Z,8.07
2019-05-07T00:31:18.711Z,5.80
2019-05-07T00:33:48.663Z,7.27
2019-05-07T00:36:33.793Z,9.63
2019-05-07T00:39:14.838Z,5.77
2019-05-07T00:41:52.195Z,7.10
2019-05-07T00:44:22.693Z,7.53
2019-05-07T00:46:52.707Z,8.10
2019-05-07T00:49:24.984Z,7.77
2019-05-07T00:51:54.978Z,7.90
2019-05-07T00:54:24.971Z,11.77
2019-05-07T00:56:54.952Z,7.93
2019-05-07T00:59:24.924Z,7.97
2019-05-07T01:01:54.928Z,9.00
2019-05-07T01:04:24.909Z,10.03
2019-05-07T01:06:54.910Z,10.77
2019-05-07T01:09:24.896Z,8.77
2019-05-07T01:11:54.970Z,10.77
2019-05-07T01:14:24.970Z,9.23
2019-05-07T01:16:54.964Z,14.27
2019-05-07T01:19:24.970Z,13.20
2019-05-07T01:21:54.942Z,10.03
2019-05-07T01:24:24.930Z,9.50
2019-05-07T01:26:54.898Z,12.33
2019-05-07T01:29:24.909Z,9.27
2019-05-07T01:32:03.216Z,15.70
2019-05-07T01:34:42.955Z,7.60
2019-05-07T01:37:12.981Z,10.57
2019-05-07T01:39:42.986Z,11.70
2019-05-07T01:42:12.981Z,13.60
2019-05-07T01:44:42.988Z,10.67
2019-05-07T01:47:13.226Z,11.17
2019-05-07T01:49:43.276Z,9.37
2019-05-07T01:52:13.539Z,13.40
2019-05-07T01:54:43.605Z,13.10
2019-05-07T01:57:13.550Z,8.10
2019-05-07T01:59:43.535Z,12.63
2019-05-07T02:02:22.769Z,10.77
2019-05-07T02:05:17.136Z,10.17
2019-05-07T02:07:53.298Z,13.07
2019-05-07T02:10:34.006Z,8.43
2019-05-07T02:13:04.048Z,9.00
2019-05-07T02:15:34.025Z,9.67
2019-05-07T02:18:04.034Z,8.37
2019-05-07T02:20:34.014Z,10.50
2019-05-07T02:23:04.072Z,7.77
2019-05-07T02:25:34.036Z,9.83
2019-05-07T02:28:04.416Z,11.00
2019-05-07T02:30:35.187Z,10.60
2019-05-07T02:33:05.592Z,6.97
2019-05-07T02:35:35.574Z,14.87
2019-05-07T02:38:24.582Z,7.13
2019-05-07T02:41:03.187Z,9.50
2019-05-07T02:43:33.938Z,10.17
2019-05-07T02:46:26.437Z,7.90
2019-05-07T02:48:54.203Z,7.40
2019-05-07T02:51:29.792Z,9.90
2019-05-07T02:54:08.662Z,6.00
2019-05-07T02:56:38.709Z,6.63
2019-05-07T02:59:08.668Z,6.97
2019-05-07T03:01:38.801Z,10.20
2019-05-07T03:04:08.789Z,9.23
2019-05-07T03:06:38.861Z,6.20
2019-05-07T03:09:08.824Z,9.67
2019-05-07T03:11:38.823Z,9.13
2019-05-07T03:14:08.910Z,12.17
2019-05-07T03:16:44.222Z,10.90
2019-05-07T03:19:13.324Z,10.23
2019-05-07T03:22:03.746Z,10.93
2019-05-07T03:24:55.598Z,8.77
2019-05-07T03:27:25.642Z,9.27
2019-05-07T03:30:16.083Z,9.30
2019-05-07T03:32:55.617Z,7.43
2019-05-07T03:35:55.636Z,6.73
2019-05-07T03:38:22.894Z,7.67
2019-05-07T03:40:53.332Z,5.53
2019-05-07T03:43:25.024Z,8.00
2019-05-07T03:46:14.422Z,8.87
2019-05-07T03:48:46.206Z,9.00
2019-05-07T03:51:16.204Z,7.50
2019-05-07T03:53:46.174Z,8.40
2019-05-07T03:56:16.177Z,8.37
2019-05-07T03:58:46.211Z,10.43
2019-05-07T04:01:16.174Z,7.40
2019-05-07T04:03:46.175Z,13.33
2019-05-07T04:06:16.126Z,10.00
2019-05-07T04:08:46.132Z,11.90
2019-05-07T04:11:16.110Z,9.17
2019-05-07T04:13:46.090Z,6.63
2019-05-07T04:16:16.067Z,10.67
2019-05-07T04:18:46.048Z,6.23
2019-05-07T04:21:16.013Z,6.47
2019-05-07T04:23:46.007Z,6.87
2019-05-07T04:26:28.059Z,10.37
2019-05-07T04:29:06.877Z,9.07
2019-05-07T04:31:43.038Z,6.77
2019-05-07T04:34:17.181Z,6.30
2019-05-07T04:36:49.108Z,9.03
2019-05-07T04:39:19.113Z,11.17
2019-05-07T04:41:49.110Z,7.77
2019-05-07T04:44:19.096Z,8.17
2019-05-07T04:46:49.071Z,8.53
2019-05-07T04:49:19.067Z,7.43
2019-05-07T04:52:03.946Z,8.40
2019-05-07T04:54:33.108Z,6.63
2019-05-07T04:57:03.783Z,8.47
2019-05-07T04:59:33.950Z,7.67
2019-05-07T05:02:13.883Z,9.83
2019-05-07T05:04:44.127Z,6.93
2019-05-07T05:07:14.168Z,10.90
2019-05-07T05:09:44.188Z,7.83
2019-05-07T05:12:14.178Z,7.37
2019-05-07T05:14:44.176Z,9.40
2019-05-07T05:17:14.161Z,8.07
2019-05-07T05:19:44.169Z,9.20
2019-05-07T05:22:36.267Z,14.83
2019-05-07T05:25:13.510Z,22.07
2019-05-07T05:27:43.493Z,13.70
2019-05-07T05:30:17.234Z,9.47
2019-05-07T05:32:47.211Z,6.47
2019-05-07T05:35:22.190Z,8.90
2019-05-07T05:37:52.308Z,8.83
2019-05-07T05:40:22.754Z,11.13
2019-05-07T05:42:58.720Z,7.73
2019-05-07T05:45:36.551Z,6.47
2019-05-07T05:48:08.526Z,10.27
2019-05-07T05:50:48.891Z,8.60
2019-05-07T05:53:33.741Z,11.23
2019-05-07T05:56:07.626Z,6.33
2019-05-07T05:58:59.397Z,4.40
2019-05-07T06:01:48.312Z,4.70
2019-05-07T06:04:25.950Z,9.33
2019-05-07T06:07:17.878Z,6.33
2019-05-07T06:10:19.222Z,7.73
2019-05-07T06:12:53.862Z,7.13
2019-05-07T06:15:42.817Z,6.00
2019-05-07T06:18:32.697Z,7.87
2019-05-07T06:21:14.192Z,4.73
2019-05-07T06:23:52.831Z,8.33
2019-05-07T06:26:22.857Z,7.13
2019-05-07T06:28:52.879Z,5.77
2019-05-07T06:31:22.818Z,5.87
2019-05-07T06:33:52.824Z,6.37
2019-05-07T06:36:22.811Z,11.70
2019-05-07T06:39:02.209Z,6.13
2019-05-07T06:41:50.117Z,4.03
2019-05-07T06:44:22.589Z,6.00
2019-05-07T06:46:52.849Z,7.87
2019-05-07T06:49:22.933Z,10.67
2019-05-07T06:51:52.975Z,6.03
2019-05-07T06:54:22.977Z,6.90
2019-05-07T06:56:52.945Z,5.43
2019-05-07T06:59:34.583Z,8.13
2019-05-07T07:02:22.530Z,6.27
2019-05-07T07:04:56.698Z,6.93
2019-05-07T07:07:37.745Z,6.53
2019-05-07T07:10:29.591Z,6.13
2019-05-07T07:12:59.579Z,8.70
2019-05-07T07:15:31.929Z,7.53
2019-05-07T07:18:03.214Z,2.73
2019-05-07T07:20:32.993Z,6.27
2019-05-07T07:23:03.038Z,3.83
2019-05-07T07:25:33.039Z,7.27
2019-05-07T07:28:03.043Z,7.70
2019-05-07T07:30:57.973Z,2.10
2019-05-07T07:33:31.980Z,4.30
2019-05-07T07:36:02.576Z,4.37
2019-05-07T07:38:33.029Z,3.53
2019-05-07T07:41:22.273Z,2.13
2019-05-07T07:43:52.658Z,3.87
2019-05-07T07:46:22.614Z,1.83
2019-05-07T07:49:06.666Z,1.97
2019-05-07T07:51:37.744Z,7.13
2019-05-07T07:53:55.974Z,2.10
2019-05-07T07:56:53.895Z,6.20
2019-05-07T07:59:32.896Z,3.23
2019-05-07T08:02:23.158Z,2.90
2019-05-07T08:04:53.107Z,4.87
2019-05-07T08:07:23.124Z,4.20
2019-05-07T08:09:53.119Z,4.07
2019-05-07T08:12:23.121Z,3.33
2019-05-07T08:14:53.093Z,2.63
2019-05-07T08:17:23.115Z,2.40
2019-05-07T08:19:53.175Z,5.07
2019-05-07T08:22:23.198Z,3.93
2019-05-07T08:24:53.199Z,2.27
2019-05-07T08:27:23.197Z,3.70
2019-05-07T08:29:53.193Z,5.93
2019-05-07T08:32:52.920Z,4.90
2019-05-07T08:35:27.269Z,4.53
2019-05-07T08:37:57.295Z,2.57
2019-05-07T08:40:27.302Z,3.83
2019-05-07T08:42:58.489Z,4.10
2019-05-07T08:45:46.233Z,3.10
2019-05-07T08:48:21.712Z,3.70
2019-05-07T08:50:52.542Z,2.77
2019-05-07T08:53:22.747Z,2.70
2019-05-07T08:55:52.737Z,3.20
2019-05-07T08:58:23.133Z,2.93
2019-05-07T09:00:53.127Z,3.07
2019-05-07T09:03:42.901Z,5.17
2019-05-07T09:06:13.642Z,4.97
2019-05-07T09:08:43.798Z,2.53
2019-05-07T09:11:13.858Z,5.30
2019-05-07T09:13:44.039Z,3.37
2019-05-07T09:16:14.029Z,6.03
2019-05-07T09:18:44.057Z,2.57
2019-05-07T09:21:14.099Z,1.27
2019-05-07T09:23:44.198Z,3.50
2019-05-07T09:26:16.076Z,4.10
2019-05-07T09:28:53.181Z,4.23
2019-05-07T09:31:37.221Z,2.80
2019-05-07T09:34:07.272Z,5.13
2019-05-07T09:36:44.063Z,2.63
2019-05-07T09:39:14.078Z,3.37
2019-05-07T09:41:44.143Z,19.50
2019-05-07T09:44:14.171Z,2.50
2019-05-07T09:46:46.657Z,6.27
2019-05-07T09:49:15.895Z,3.73
2019-05-07T09:51:45.882Z,4.73
2019-05-07T09:54:15.957Z,3.13
2019-05-07T09:56:45.932Z,10.27
2019-05-07T09:59:15.957Z,1.10
2019-05-07T10:01:45.953Z,6.17
2019-05-07T10:04:15.974Z,3.63
2019-05-07T10:06:45.997Z,1.83
2019-05-07T10:09:16.007Z,4.83
2019-05-07T10:11:55.628Z,3.77
2019-05-07T10:14:25.650Z,2.67
2019-05-07T10:17:11.986Z,3.97
2019-05-07T10:19:42.053Z,4.13
2019-05-07T10:22:12.638Z,4.37
2019-05-07T10:24:42.751Z,3.93
2019-05-07T10:27:12.838Z,1.87
2019-05-07T10:29:42.893Z,2.57
2019-05-07T10:32:12.996Z,3.50
2019-05-07T10:34:43.032Z,2.80
2019-05-07T10:37:13.023Z,4.53
2019-05-07T10:39:43.157Z,1.70
2019-05-07T10:42:13.110Z,3.50
2019-05-07T10:45:04.851Z,1.67
2019-05-07T10:47:58.606Z,2.43
2019-05-07T10:50:36.359Z,2.90
2019-05-07T10:53:02.056Z,2.60
2019-05-07T10:55:32.898Z,0.87
2019-05-07T10:58:03.157Z,2.80
2019-05-07T11:00:33.437Z,1.23
2019-05-07T11:03:03.442Z,1.57
2019-05-07T11:05:33.494Z,3.93
2019-05-07T11:08:03.475Z,2.37
2019-05-07T11:10:33.510Z,4.23
2019-05-07T11:13:03.480Z,1.70
2019-05-07T11:15:33.781Z,5.33
2019-05-07T11:18:25.018Z,2.03
2019-05-07T11:20:55.098Z,1.37
2019-05-07T11:23:25.081Z,1.53
2019-05-07T11:25:55.118Z,1.97
2019-05-07T11:28:25.085Z,1.40
2019-05-07T11:30:55.093Z,2.63
2019-05-07T11:33:25.069Z,1.23
2019-05-07T11:35:55.081Z,3.87
2019-05-07T11:38:25.176Z,2.17
2019-05-07T11:40:55.189Z,1.40
2019-05-07T11:43:42.644Z,2.47
2019-05-07T11:46:16.572Z,1.77
2019-05-07T11:48:54.625Z,2.23
2019-05-07T11:51:36.257Z,1.63
2019-05-07T11:54:09.256Z,3.57
2019-05-07T11:56:42.915Z,3.33
2019-05-07T12:00:32.160Z,2.73
2019-05-07T12:11:36.480Z,4.00
2019-05-07T12:14:06.785Z,1.13
2019-05-07T12:16:36.827Z,2.97
2019-05-07T12:19:06.934Z,2.33
2019-05-07T12:21:36.978Z,1.70
2019-05-07T12:24:07.038Z,4.77
2019-05-07T12:26:38.696Z,4.43
2019-05-07T12:29:08.674Z,2.27
2019-05-07T12:31:56.520Z,2.23
2019-05-07T12:34:31.848Z,1.60
2019-05-07T12:37:01.924Z,1.57
2019-05-07T12:39:32.032Z,1.33
2019-05-07T12:42:02.870Z,0.80
2019-05-07T12:44:32.866Z,1.97
2019-05-07T12:47:02.984Z,1.97
2019-05-07T12:49:33.008Z,1.63
2019-05-07T12:52:25.254Z,1.90
2019-05-07T12:55:03.235Z,1.80
2019-05-07T12:57:33.323Z,2.70
2019-05-07T13:00:22.932Z,1.27
2019-05-07T13:03:12.604Z,4.87
2019-05-07T13:05:42.283Z,1.63
2019-05-07T13:08:12.400Z,5.33
2019-05-07T13:10:42.928Z,2.30
2019-05-07T13:13:13.026Z,2.07
2019-05-07T13:15:43.438Z,2.63
2019-05-07T13:18:13.526Z,1.90
2019-05-07T13:20:43.513Z,1.67
2019-05-07T13:23:13.526Z,2.50
2019-05-07T13:25:43.560Z,2.67
2019-05-07T13:28:13.588Z,1.10
2019-05-07T13:30:43.968Z,1.80
2019-05-07T13:33:14.734Z,1.23
2019-05-07T13:35:44.731Z,6.60
2019-05-07T13:38:49.048Z,3.33
2019-05-07T13:41:56.139Z,2.50
2019-05-07T13:44:45.408Z,1.17
2019-05-07T13:47:43.333Z,1.00
2019-05-07T13:50:16.659Z,1.50
2019-05-07T13:52:46.693Z,4.83
2019-05-07T13:55:16.679Z,1.30
2019-05-07T13:57:46.678Z,3.37
2019-05-07T14:00:32.450Z,2.57
2019-05-07T14:03:03.245Z,2.77
2019-05-07T14:05:37.411Z,1.73
2019-05-07T14:08:19.527Z,2.73
2019-05-07T14:11:22.344Z,3.57
2019-05-07T14:13:52.327Z,1.10
2019-05-07T14:20:07.338Z,3.37
2019-05-07T14:22:37.316Z,1.57
2019-05-07T14:25:07.819Z,3.50
2019-05-07T14:27:37.844Z,1.43
2019-05-07T14:30:08.614Z,1.37
2019-05-07T14:33:01.797Z,2.07
2019-05-07T14:35:57.952Z,2.13
2019-05-07T14:38:42.521Z,2.33
2019-05-07T14:41:13.012Z,1.17
2019-05-07T14:44:01.105Z,1.80
2019-05-07T14:46:44.635Z,3.27
2019-05-07T14:49:02.922Z,1.93
2019-05-07T14:51:32.888Z,1.83
2019-05-07T14:54:02.918Z,4.20
2019-05-07T14:56:33.124Z,2.60
2019-05-07T14:59:03.157Z,1.90
2019-05-07T15:01:33.969Z,3.17
2019-05-07T15:04:04.236Z,2.73
2019-05-07T15:06:34.623Z,1.43
2019-05-07T15:09:06.685Z,3.10
2019-05-07T15:11:37.006Z,5.27
2019-05-07T15:14:07.046Z,1.60
2019-05-07T15:16:37.343Z,1.80
2019-05-07T15:19:07.447Z,2.20
2019-05-07T15:21:37.439Z,1.00
2019-05-07T15:24:07.466Z,1.13
2019-05-07T15:26:37.462Z,1.50
2019-05-07T15:29:13.349Z,2.37
2019-05-07T15:32:03.195Z,2.60
2019-05-07T15:34:32.922Z,4.57
2019-05-07T15:37:02.883Z,2.57
2019-05-07T15:39:33.058Z,2.53
2019-05-07T15:42:03.081Z,2.67
2019-05-07T15:44:33.102Z,2.07
2019-05-07T15:47:07.272Z,1.50
2019-05-07T15:49:37.376Z,3.30
2019-05-07T15:56:07.728Z,1.60
2019-05-07T15:58:37.824Z,1.10
2019-05-07T16:01:07.896Z,1.50
2019-05-07T16:03:42.856Z,2.10
2019-05-07T16:06:12.944Z,2.70
2019-05-07T16:08:52.013Z,3.07
2019-05-07T16:11:23.244Z,1.37
2019-05-07T16:14:14.552Z,1.53
2019-05-07T16:16:46.682Z,3.03
2019-05-07T16:19:27.203Z,2.20
2019-05-07T16:21:59.585Z,4.10
2019-05-07T16:24:31.794Z,3.57
2019-05-07T16:27:04.922Z,3.20
2019-05-07T16:29:35.646Z,1.60
2019-05-07T16:32:04.817Z,1.87
2019-05-07T16:34:34.902Z,1.30
2019-05-07T16:37:07.487Z,2.47
2019-05-07T16:39:36.660Z,2.43
2019-05-07T16:42:06.723Z,1.40
2019-05-07T16:44:36.710Z,4.63
2019-05-07T16:47:06.752Z,2.57
2019-05-07T16:49:36.752Z,1.43
2019-05-07T16:52:06.773Z,1.77
2019-05-07T16:54:36.752Z,0.93
2019-05-07T16:57:42.344Z,1.50
2019-05-07T17:00:17.664Z,1.10
2019-05-07T17:02:48.914Z,3.20
2019-05-07T17:05:18.954Z,1.73
2019-05-07T17:08:14.203Z,1.80
2019-05-07T17:10:44.692Z,3.00
2019-05-07T17:13:14.678Z,2.40
2019-05-07T17:18:41.600Z,1.80
2019-05-07T17:21:12.359Z,4.97
2019-05-07T17:23:44.639Z,3.13
2019-05-07T17:26:14.540Z,1.23
2019-05-07T17:28:44.524Z,2.17
2019-05-07T17:31:14.557Z,2.20
2019-05-07T17:33:44.536Z,1.00
2019-05-07T17:36:14.580Z,1.43
2019-05-07T17:38:44.596Z,2.10
2019-05-07T17:41:22.196Z,1.60
2019-05-07T17:43:46.653Z,1.93
2019-05-07T17:46:16.697Z,2.03
2019-05-07T17:48:46.707Z,1.73
2019-05-07T17:51:35.680Z,1.40
2019-05-07T17:54:43.187Z,4.97
2019-05-07T17:57:15.795Z,1.87
2019-05-07T18:03:33.593Z,1.63
2019-05-07T18:06:03.805Z,4.27
2019-05-07T18:08:33.843Z,1.47
2019-05-07T18:11:17.362Z,1.90
2019-05-07T18:13:35.626Z,3.27
2019-05-07T18:16:12.253Z,2.33
2019-05-07T18:18:43.211Z,1.67
2019-05-07T18:21:13.361Z,2.53
2019-05-07T18:23:43.482Z,5.70
2019-05-07T18:26:26.904Z,2.07
2019-05-07T18:28:45.285Z,1.03
2019-05-07T18:31:15.903Z,1.77
2019-05-07T18:33:53.184Z,1.23
2019-05-07T18:36:23.198Z,1.33
2019-05-07T18:38:53.281Z,2.33
2019-05-07T18:41:23.403Z,2.87
2019-05-07T18:43:54.672Z,2.33
2019-05-07T18:46:24.924Z,3.03
2019-05-07T18:48:54.970Z,1.63
2019-05-07T18:51:25.052Z,1.33
2019-05-07T18:53:55.113Z,1.20
2019-05-07T18:56:25.119Z,3.07
2019-05-07T18:58:55.169Z,3.30
2019-05-07T19:01:27.142Z,2.83
2019-05-07T19:03:57.873Z,1.30
2019-05-07T19:06:27.895Z,2.03
2019-05-07T19:08:57.908Z,7.23
2019-05-07T19:11:27.933Z,4.40
2019-05-07T19:13:57.983Z,3.67
2019-05-07T19:16:27.970Z,0.90
2019-05-07T19:18:58.014Z,3.27
2019-05-07T19:21:28.028Z,3.70
2019-05-07T19:23:58.098Z,2.27
2019-05-07T19:26:28.127Z,2.17
2019-05-07T19:28:58.189Z,2.20
2019-05-07T19:31:28.188Z,2.40
2019-05-07T19:33:58.259Z,1.53
2019-05-07T19:36:28.384Z,1.67
2019-05-07T19:38:58.418Z,2.33
2019-05-07T19:41:28.485Z,7.00
2019-05-07T19:43:58.531Z,1.77
2019-05-07T19:46:28.589Z,2.43
2019-05-07T19:48:58.653Z,1.90
2019-05-07T19:51:28.663Z,2.53
2019-05-07T19:53:58.697Z,1.93
2019-05-07T19:56:28.715Z,1.60
2019-05-07T19:58:58.826Z,1.27
2019-05-07T20:01:45.766Z,2.37
2019-05-07T20:04:15.841Z,2.63
2019-05-07T20:06:45.874Z,2.03
2019-05-07T20:09:17.833Z,2.60
2019-05-07T20:11:49.009Z,1.20
2019-05-07T20:14:19.019Z,0.80
2019-05-07T20:16:49.025Z,1.50
2019-05-07T20:19:19.069Z,2.63
2019-05-07T20:21:49.082Z,2.37
2019-05-07T20:24:19.105Z,1.80
2019-05-07T20:26:49.091Z,3.33
2019-05-07T20:29:19.158Z,1.60
2019-05-07T20:31:49.203Z,1.00
2019-05-07T20:34:19.208Z,2.70
2019-05-07T20:36:49.226Z,3.40
2019-05-07T20:39:19.255Z,3.10
2019-05-07T20:41:49.318Z,3.70
2019-05-07T20:44:19.387Z,3.70
2019-05-07T20:46:49.578Z,1.83
2019-05-07T20:49:19.614Z,2.10
2019-05-07T20:51:49.643Z,1.53
2019-05-07T20:54:36.611Z,2.40
2019-05-07T20:57:22.314Z,0.73
2019-05-07T20:59:51.709Z,1.07
2019-05-07T21:02:22.713Z,1.00
2019-05-07T21:04:52.950Z,1.27
2019-05-07T21:07:22.956Z,1.77
2019-05-07T21:09:53.139Z,1.83
2019-05-07T21:12:23.158Z,3.53
2019-05-07T21:14:53.252Z,1.63
2019-05-07T21:17:23.250Z,1.80
2019-05-07T21:19:53.280Z,1.77
2019-05-07T21:22:23.302Z,2.73
2019-05-07T21:24:53.512Z,2.30
2019-05-07T21:27:23.637Z,4.27
2019-05-07T21:29:53.630Z,2.10
2019-05-07T21:32:23.653Z,3.00
2019-05-07T21:34:53.653Z,1.63
2019-05-07T21:37:23.774Z,2.83
2019-05-07T21:39:54.122Z,4.40
2019-05-07T21:42:24.210Z,2.23
2019-05-07T21:44:54.285Z,4.33
2019-05-07T21:47:24.308Z,2.23
2019-05-07T21:49:55.257Z,1.33
2019-05-07T21:52:27.326Z,2.83
2019-05-07T21:55:10.121Z,2.57
2019-05-07T21:57:59.089Z,3.07
2019-05-07T22:01:03.416Z,1.60
2019-05-07T22:03:34.974Z,3.20
2019-05-07T22:06:05.119Z,6.47
2019-05-07T22:08:35.103Z,2.40
2019-05-07T22:11:05.169Z,5.67
2019-05-07T22:13:35.151Z,2.67
2019-05-07T22:16:05.157Z,4.67
2019-05-07T22:18:35.137Z,2.87
2019-05-07T22:21:05.144Z,3.27
2019-05-07T22:23:35.191Z,5.23
2019-05-07T22:26:19.219Z,4.37
2019-05-07T22:28:37.626Z,2.30
2019-05-07T22:31:34.469Z,1.87
2019-05-07T22:34:22.256Z,2.07
2019-05-07T22:36:55.020Z,2.03
2019-05-07T22:39:23.757Z,1.60
2019-05-07T22:41:53.750Z,3.77
2019-05-07T22:44:26.228Z,5.73
2019-05-07T22:46:57.706Z,3.23
2019-05-07T22:49:27.680Z,4.20
2019-05-07T22:51:57.726Z,1.90
2019-05-07T22:54:27.704Z,2.33
2019-05-07T22:57:03.177Z,2.30
2019-05-07T22:59:33.160Z,3.00
2019-05-07T23:02:04.179Z,1.50
2019-05-07T23:04:34.151Z,1.70
2019-05-07T23:07:04.142Z,2.10
2019-05-07T23:09:34.114Z,4.67
2019-05-07T23:12:04.108Z,2.80
2019-05-07T23:14:34.081Z,2.23
2019-05-07T23:17:04.091Z,2.20
2019-05-07T23:19:34.088Z,3.53
2019-05-07T23:22:04.061Z,2.50
2019-05-07T23:24:34.064Z,2.23
2019-05-07T23:27:04.040Z,2.37
2019-05-07T23:29:34.042Z,1.97
2019-05-07T23:32:04.031Z,5.13
2019-05-07T23:34:34.046Z,2.77
2019-05-07T23:37:04.016Z,1.77
2019-05-07T23:39:35.986Z,2.33
2019-05-07T23:42:28.006Z,4.60
2019-05-07T23:44:58.008Z,3.03
2019-05-07T23:47:27.976Z,2.03
2019-05-07T23:49:57.982Z,2.50
2019-05-07T23:52:27.947Z,3.50
2019-05-07T23:54:57.979Z,3.53
2019-05-07T23:57:27.942Z,3.10
2019-05-07T23:59:57.924Z,3.60
